createdAt,value
2019-01-10T00:00:37.053Z,5.50
2019-01-10T00:03:10.250Z,4.70
2019-01-10T00:05:41.180Z,5.93
2019-01-10T00:08:13.355Z,5.17
2019-01-10T00:10:44.313Z,4.60
2019-01-10T00:13:15.167Z,5.10
2019-01-10T00:15:45.979Z,5.60
2019-01-10T00:18:16.879Z,5.17
2019-01-10T00:20:47.266Z,6.20
2019-01-10T00:23:18.181Z,5.30
2019-01-10T00:25:49.125Z,5.53
2019-01-10T00:28:20.040Z,5.33
2019-01-10T00:30:50.520Z,6.10
2019-01-10T00:33:22.813Z,6.27
2019-01-10T00:35:54.406Z,11.60
2019-01-10T00:38:25.293Z,9.60
2019-01-10T00:40:58.428Z,7.27
2019-01-10T00:43:29.287Z,7.90
2019-01-10T00:46:00.295Z,8.50
2019-01-10T00:48:33.463Z,6.40
2019-01-10T00:51:05.674Z,5.50
2019-01-10T00:53:37.571Z,6.20
2019-01-10T00:56:08.373Z,6.47
2019-01-10T00:58:40.382Z,6.20
2019-01-10T01:01:10.797Z,6.83
2019-01-10T01:03:41.435Z,7.37
2019-01-10T01:06:15.658Z,6.27
2019-01-10T01:08:49.493Z,8.30
2019-01-10T01:11:21.474Z,7.93
2019-01-10T01:13:52.595Z,7.50
2019-01-10T01:16:23.556Z,7.60
2019-01-10T01:18:54.537Z,7.93
2019-01-10T01:21:24.945Z,7.67
2019-01-10T01:23:55.528Z,7.80
2019-01-10T01:26:27.518Z,6.70
2019-01-10T01:29:00.623Z,8.70
2019-01-10T01:31:31.542Z,8.10
2019-01-10T01:34:04.590Z,7.70
2019-01-10T01:36:35.554Z,8.17
2019-01-10T01:39:09.511Z,8.60
2019-01-10T01:41:39.966Z,8.67
2019-01-10T01:44:10.311Z,8.20
2019-01-10T01:46:40.933Z,8.97
2019-01-10T01:49:11.628Z,8.57
2019-01-10T01:51:42.158Z,8.30
2019-01-10T01:54:12.668Z,9.17
2019-01-10T01:56:43.425Z,10.03
2019-01-10T01:59:14.045Z,9.10
2019-01-10T02:01:44.629Z,9.07
2019-01-10T02:04:16.313Z,8.00
2019-01-10T02:06:48.685Z,9.17
2019-01-10T02:09:19.645Z,8.33
2019-01-10T02:11:51.204Z,8.17
2019-01-10T02:14:23.805Z,8.93
2019-01-10T02:16:55.737Z,8.43
2019-01-10T02:19:27.813Z,8.20
2019-01-10T02:21:59.874Z,8.13
2019-01-10T02:24:32.867Z,8.87
2019-01-10T02:27:03.777Z,8.80
2019-01-10T02:29:35.160Z,9.40
2019-01-10T02:32:07.480Z,8.40
2019-01-10T02:34:38.000Z,8.77
2019-01-10T02:37:08.923Z,7.60
2019-01-10T02:39:40.840Z,8.27
2019-01-10T02:42:11.536Z,8.43
2019-01-10T02:44:42.003Z,9.03
2019-01-10T02:47:12.613Z,8.43
2019-01-10T02:49:43.245Z,8.50
2019-01-10T02:52:13.815Z,8.50
2019-01-10T02:54:44.417Z,7.83
2019-01-10T02:57:14.875Z,9.07
2019-01-10T02:59:45.761Z,9.00
2019-01-10T03:02:16.428Z,9.50
2019-01-10T03:04:46.914Z,10.00
2019-01-10T03:07:17.628Z,9.07
2019-01-10T03:09:48.266Z,10.17
2019-01-10T03:12:18.965Z,9.60
2019-01-10T03:14:49.665Z,9.63
2019-01-10T03:17:20.046Z,9.67
2019-01-10T03:19:51.096Z,9.70
2019-01-10T03:22:21.944Z,9.63
2019-01-10T03:24:52.528Z,9.97
2019-01-10T03:27:23.077Z,10.63
2019-01-10T03:29:53.981Z,10.73
2019-01-10T03:32:24.833Z,10.37
2019-01-10T03:34:55.692Z,9.77
2019-01-10T03:37:28.304Z,10.57
2019-01-10T03:40:00.329Z,10.33
2019-01-10T03:42:30.908Z,10.00
2019-01-10T03:45:04.387Z,10.17
2019-01-10T03:47:35.085Z,10.70
2019-01-10T03:50:08.950Z,11.50
2019-01-10T03:52:41.282Z,10.33
2019-01-10T03:55:14.540Z,11.60
2019-01-10T03:57:45.270Z,11.17
2019-01-10T04:00:24.264Z,11.87
2019-01-10T04:02:57.513Z,10.77
2019-01-10T04:05:30.171Z,11.27
2019-01-10T04:08:01.136Z,11.57
2019-01-10T04:10:31.566Z,10.97
2019-01-10T04:13:02.203Z,11.67
2019-01-10T04:15:33.322Z,13.53
2019-01-10T04:18:04.189Z,12.80
2019-01-10T04:20:37.258Z,12.70
2019-01-10T04:23:08.346Z,13.97
2019-01-10T04:25:38.700Z,12.83
2019-01-10T04:28:09.889Z,14.70
2019-01-10T04:30:40.660Z,14.67
2019-01-10T04:33:11.325Z,15.70
2019-01-10T04:35:41.989Z,14.70
2019-01-10T04:38:12.365Z,14.83
2019-01-10T04:40:43.328Z,16.50
2019-01-10T04:43:14.093Z,15.63
2019-01-10T04:45:44.508Z,15.93
2019-01-10T04:48:15.471Z,16.80
2019-01-10T04:50:46.005Z,16.83
2019-01-10T04:53:17.372Z,15.43
2019-01-10T04:55:49.408Z,18.33
2019-01-10T04:58:20.548Z,17.80
2019-01-10T05:00:53.464Z,17.97
2019-01-10T05:03:24.501Z,16.20
2019-01-10T05:05:54.902Z,16.50
2019-01-10T05:08:25.555Z,18.00
2019-01-10T05:10:58.440Z,18.20
2019-01-10T05:13:29.568Z,17.60
2019-01-10T05:16:02.558Z,16.17
2019-01-10T05:18:33.602Z,17.07
2019-01-10T05:21:06.503Z,17.10
2019-01-10T05:23:37.429Z,17.73
2019-01-10T05:26:07.956Z,18.13
2019-01-10T05:28:38.378Z,16.57
2019-01-10T05:31:09.293Z,18.47
2019-01-10T05:33:39.859Z,16.80
2019-01-10T05:36:10.565Z,18.13
2019-01-10T05:38:41.152Z,17.83
2019-01-10T05:41:11.928Z,17.53
2019-01-10T05:43:42.551Z,17.50
2019-01-10T05:46:13.413Z,18.70
2019-01-10T05:48:47.248Z,17.00
2019-01-10T05:51:17.692Z,16.33
2019-01-10T05:53:48.647Z,17.73
2019-01-10T05:56:21.811Z,17.57
2019-01-10T05:58:52.820Z,16.90
2019-01-10T06:01:23.937Z,17.70
2019-01-10T06:03:54.746Z,15.43
2019-01-10T06:06:27.871Z,16.70
2019-01-10T06:08:58.726Z,17.17
2019-01-10T06:11:31.415Z,17.17
2019-01-10T06:14:02.852Z,16.53
2019-01-10T06:16:33.825Z,18.33
2019-01-10T06:19:06.787Z,19.47
2019-01-10T06:21:37.801Z,17.13
2019-01-10T06:24:08.483Z,17.60
2019-01-10T06:26:38.964Z,17.57
2019-01-10T06:29:09.711Z,17.57
2019-01-10T06:31:40.382Z,16.87
2019-01-10T06:34:10.747Z,17.67
2019-01-10T06:36:41.761Z,19.20
2019-01-10T06:39:12.297Z,18.50
2019-01-10T06:41:43.104Z,17.73
2019-01-10T06:44:13.638Z,18.80
2019-01-10T06:46:44.299Z,17.87
2019-01-10T06:49:14.958Z,18.60
2019-01-10T06:51:45.678Z,19.23
2019-01-10T06:54:16.067Z,18.87
2019-01-10T06:56:47.116Z,17.77
2019-01-10T06:59:17.787Z,17.03
2019-01-10T07:01:48.624Z,16.80
2019-01-10T07:04:19.004Z,19.13
2019-01-10T07:06:49.950Z,17.27
2019-01-10T07:09:20.671Z,18.03
2019-01-10T07:11:51.594Z,19.17
2019-01-10T07:14:22.153Z,18.90
2019-01-10T07:16:53.770Z,19.20
2019-01-10T07:19:45.575Z,19.97
2019-01-10T07:22:17.186Z,19.10
2019-01-10T07:24:56.360Z,19.77
2019-01-10T07:27:28.159Z,19.50
2019-01-10T07:29:59.694Z,19.33
2019-01-10T07:32:32.196Z,19.77
2019-01-10T07:35:08.423Z,19.10
2019-01-10T07:37:38.823Z,19.70
2019-01-10T07:40:15.762Z,18.97
2019-01-10T07:42:46.316Z,20.30
2019-01-10T07:45:20.506Z,19.13
2019-01-10T07:47:51.525Z,18.63
2019-01-10T07:50:35.493Z,18.67
2019-01-10T07:53:08.850Z,18.07
2019-01-10T07:55:41.560Z,19.63
2019-01-10T07:58:12.488Z,16.70
2019-01-10T08:00:44.152Z,17.33
2019-01-10T08:03:15.335Z,16.50
2019-01-10T08:05:47.240Z,16.57
2019-01-10T08:08:18.211Z,16.97
2019-01-10T08:10:50.458Z,17.17
2019-01-10T08:13:22.352Z,17.37
2019-01-10T08:15:53.357Z,16.50
2019-01-10T08:18:24.287Z,17.00
2019-01-10T08:20:55.243Z,16.70
2019-01-10T08:23:25.784Z,19.03
2019-01-10T08:25:56.356Z,16.87
2019-01-10T08:28:27.022Z,17.13
2019-01-10T08:30:57.507Z,16.80
2019-01-10T08:33:28.105Z,17.10
2019-01-10T08:35:58.459Z,17.20
2019-01-10T08:38:29.263Z,17.27
2019-01-10T08:40:59.809Z,16.77
2019-01-10T08:43:31.766Z,17.50
2019-01-10T08:46:04.489Z,17.37
2019-01-10T08:48:37.440Z,17.63
2019-01-10T08:51:08.402Z,17.27
2019-01-10T08:53:38.830Z,17.00
2019-01-10T08:56:09.546Z,17.67
2019-01-10T08:58:41.533Z,17.33
2019-01-10T09:01:13.497Z,17.50
2019-01-10T09:03:44.653Z,17.83
2019-01-10T09:06:15.465Z,18.73
2019-01-10T09:08:47.555Z,19.23
2019-01-10T09:11:19.570Z,20.00
2019-01-10T09:13:51.749Z,19.47
2019-01-10T09:16:23.641Z,18.53
2019-01-10T09:18:55.461Z,19.33
2019-01-10T09:21:26.239Z,17.70
2019-01-10T09:23:57.100Z,19.37
2019-01-10T09:26:29.430Z,17.37
2019-01-10T09:29:01.591Z,17.97
2019-01-10T09:31:34.565Z,18.40
2019-01-10T09:34:06.668Z,17.40
2019-01-10T09:36:38.312Z,19.63
2019-01-10T09:39:09.914Z,18.67
2019-01-10T09:41:41.726Z,18.20
2019-01-10T09:44:13.669Z,16.30
2019-01-10T09:46:44.741Z,19.00
2019-01-10T09:49:17.851Z,17.83
2019-01-10T09:51:48.374Z,17.83
2019-01-10T09:54:18.918Z,17.50
2019-01-10T09:56:49.624Z,17.90
2019-01-10T09:59:20.274Z,17.77
2019-01-10T10:01:50.784Z,18.00
2019-01-10T10:04:21.658Z,18.50
2019-01-10T10:06:52.448Z,18.27
2019-01-10T10:09:24.694Z,17.97
2019-01-10T10:11:57.007Z,19.00
2019-01-10T10:14:31.705Z,18.73
2019-01-10T10:17:03.857Z,19.40
2019-01-10T10:19:35.267Z,18.93
2019-01-10T10:22:06.119Z,19.30
2019-01-10T10:24:36.783Z,17.10
2019-01-10T10:27:07.961Z,15.97
2019-01-10T10:29:38.406Z,16.17
2019-01-10T10:32:09.080Z,16.03
2019-01-10T10:34:41.994Z,18.30
2019-01-10T10:37:14.992Z,16.50
2019-01-10T10:39:47.008Z,16.80
2019-01-10T10:42:17.570Z,17.20
2019-01-10T10:44:47.978Z,16.20
2019-01-10T10:47:18.609Z,17.43
2019-01-10T10:49:49.241Z,18.30
2019-01-10T10:52:19.825Z,16.73
2019-01-10T10:54:50.500Z,18.27
2019-01-10T10:57:21.913Z,17.80
2019-01-10T10:59:54.959Z,16.47
2019-01-10T11:02:28.145Z,17.33
2019-01-10T11:04:59.136Z,17.20
2019-01-10T11:07:30.221Z,17.60
2019-01-10T11:10:03.059Z,17.33
2019-01-10T11:12:34.065Z,18.30
2019-01-10T11:15:06.280Z,15.80
2019-01-10T11:17:38.505Z,17.33
2019-01-10T11:20:12.129Z,16.00
2019-01-10T11:22:42.953Z,15.33
2019-01-10T11:25:16.059Z,18.13
2019-01-10T11:27:47.092Z,16.90
2019-01-10T11:30:19.012Z,15.63
2019-01-10T11:32:53.690Z,15.50
2019-01-10T11:35:25.137Z,15.03
2019-01-10T11:37:56.256Z,16.07
2019-01-10T11:40:27.214Z,15.27
2019-01-10T11:42:58.155Z,16.37
2019-01-10T11:45:29.646Z,15.80
2019-01-10T11:48:01.250Z,15.50
2019-01-10T11:50:31.612Z,13.90
2019-01-10T11:53:03.809Z,16.43
2019-01-10T11:55:36.200Z,15.10
2019-01-10T11:58:06.777Z,16.00
2019-01-10T12:00:37.359Z,16.90
2019-01-10T12:03:08.668Z,15.03
2019-01-10T12:05:47.503Z,16.10
2019-01-10T12:08:15.404Z,16.47
2019-01-10T12:10:48.410Z,15.77
2019-01-10T12:13:19.331Z,15.67
2019-01-10T12:15:52.330Z,16.83
2019-01-10T12:18:23.273Z,16.57
2019-01-10T12:20:54.329Z,16.00
2019-01-10T12:23:25.431Z,16.70
2019-01-10T12:25:58.371Z,16.20
2019-01-10T12:28:29.429Z,15.63
2019-01-10T12:30:59.833Z,15.47
2019-01-10T12:33:30.322Z,15.33
2019-01-10T12:36:01.116Z,17.03
2019-01-10T12:38:31.487Z,16.90
2019-01-10T12:41:02.562Z,15.70
2019-01-10T12:43:33.274Z,16.70
2019-01-10T12:46:05.975Z,17.20
2019-01-10T12:48:37.530Z,16.90
2019-01-10T12:51:10.444Z,17.30
2019-01-10T12:53:41.481Z,17.30
2019-01-10T12:56:12.870Z,17.50
2019-01-10T12:58:44.458Z,17.53
2019-01-10T13:01:16.535Z,17.03
2019-01-10T13:03:48.582Z,18.97
2019-01-10T13:06:20.568Z,18.60
2019-01-10T13:08:51.689Z,17.70
2019-01-10T13:11:23.237Z,17.63
2019-01-10T13:13:55.725Z,16.57
2019-01-10T13:16:26.626Z,16.60
2019-01-10T13:18:57.468Z,18.60
2019-01-10T13:21:27.992Z,18.43
2019-01-10T13:24:00.254Z,18.00
2019-01-10T13:26:30.938Z,17.47
2019-01-10T13:29:02.707Z,18.70
2019-01-10T13:31:33.630Z,18.40
2019-01-10T13:34:04.807Z,17.97
2019-01-10T13:36:37.641Z,17.70
2019-01-10T13:39:10.217Z,16.83
2019-01-10T13:41:41.803Z,16.53
2019-01-10T13:44:12.953Z,16.83
2019-01-10T13:46:43.460Z,16.67
2019-01-10T13:49:15.876Z,17.30
2019-01-10T13:51:47.819Z,17.93
2019-01-10T13:54:19.868Z,15.67
2019-01-10T13:56:50.822Z,16.43
2019-01-10T13:59:23.893Z,17.07
2019-01-10T14:01:55.027Z,16.67
2019-01-10T14:04:25.401Z,14.77
2019-01-10T14:06:57.688Z,14.63
2019-01-10T14:09:28.842Z,11.87
2019-01-10T14:12:00.024Z,11.40
2019-01-10T14:14:31.006Z,11.67
2019-01-10T14:17:05.757Z,11.47
2019-01-10T14:19:37.982Z,12.33
2019-01-10T14:22:09.028Z,11.20
2019-01-10T14:24:39.433Z,11.13
2019-01-10T14:27:10.006Z,10.27
2019-01-10T14:29:41.924Z,11.17
2019-01-10T14:32:13.917Z,11.47
2019-01-10T14:34:45.073Z,11.50
2019-01-10T14:37:16.072Z,12.17
2019-01-10T14:39:48.020Z,10.47
2019-01-10T14:42:20.191Z,12.80
2019-01-10T14:44:50.904Z,11.70
2019-01-10T14:47:21.731Z,11.43
2019-01-10T14:49:52.508Z,13.20
2019-01-10T14:52:22.997Z,12.03
2019-01-10T14:54:54.071Z,12.50
2019-01-10T14:57:24.808Z,13.10
2019-01-10T14:59:55.710Z,12.20
2019-01-10T15:02:26.539Z,11.93
2019-01-10T15:04:57.005Z,12.90
2019-01-10T15:07:27.568Z,12.80
2019-01-10T15:09:58.188Z,11.80
2019-01-10T15:12:28.798Z,12.07
2019-01-10T15:14:59.219Z,13.23
2019-01-10T15:17:30.225Z,13.10
2019-01-10T15:20:00.710Z,11.97
2019-01-10T15:22:31.926Z,12.20
2019-01-10T15:25:04.020Z,12.90
2019-01-10T15:27:35.215Z,11.30
2019-01-10T15:30:09.389Z,12.90
2019-01-10T15:32:41.468Z,12.70
2019-01-10T15:35:13.730Z,12.10
2019-01-10T15:37:45.311Z,17.30
2019-01-10T15:40:19.876Z,13.83
2019-01-10T15:42:51.817Z,12.00
2019-01-10T15:45:22.445Z,12.60
2019-01-10T15:47:53.058Z,12.50
2019-01-10T15:50:23.925Z,12.80
2019-01-10T15:52:54.556Z,12.33
2019-01-10T15:55:25.326Z,11.50
2019-01-10T15:57:56.081Z,12.43
2019-01-10T16:00:26.944Z,11.30
2019-01-10T16:02:57.415Z,12.37
2019-01-10T16:05:28.329Z,11.90
2019-01-10T16:07:59.345Z,11.40
2019-01-10T16:10:29.895Z,11.63
2019-01-10T16:13:00.331Z,13.67
2019-01-10T16:15:31.071Z,13.40
2019-01-10T16:18:01.777Z,12.67
2019-01-10T16:20:32.387Z,12.50
2019-01-10T16:23:02.948Z,12.30
2019-01-10T16:25:33.474Z,12.07
2019-01-10T16:28:04.206Z,10.97
2019-01-10T16:30:35.412Z,11.40
2019-01-10T16:33:05.802Z,13.00
2019-01-10T16:35:36.166Z,11.10
2019-01-10T16:38:06.553Z,12.33
2019-01-10T16:40:38.452Z,11.30
2019-01-10T16:43:12.027Z,11.27
2019-01-10T16:45:42.721Z,10.20
2019-01-10T16:48:15.567Z,10.60
2019-01-10T16:50:46.501Z,10.53
2019-01-10T16:53:19.553Z,11.03
2019-01-10T16:55:50.647Z,10.57
2019-01-10T16:58:21.595Z,9.60
2019-01-10T17:00:52.570Z,9.70
2019-01-10T17:03:24.833Z,9.67
2019-01-10T17:05:57.676Z,10.40
2019-01-10T17:08:30.632Z,10.67
2019-01-10T17:11:01.679Z,10.13
2019-01-10T17:13:32.428Z,11.67
2019-01-10T17:16:02.980Z,10.27
2019-01-10T17:18:33.468Z,9.47
2019-01-10T17:21:04.623Z,9.80
2019-01-10T17:23:35.013Z,9.50
2019-01-10T17:26:05.438Z,9.40
2019-01-10T17:28:35.918Z,8.53
2019-01-10T17:31:06.698Z,9.27
2019-01-10T17:33:37.194Z,9.67
2019-01-10T17:36:07.764Z,8.90
2019-01-10T17:38:38.382Z,8.60
2019-01-10T17:41:09.083Z,8.40
2019-01-10T17:43:39.483Z,8.83
2019-01-10T17:46:10.560Z,7.93
2019-01-10T17:48:41.217Z,8.57
2019-01-10T17:51:11.879Z,8.70
2019-01-10T17:53:42.659Z,9.07
2019-01-10T17:56:13.332Z,8.87
2019-01-10T17:58:43.900Z,8.93
2019-01-10T18:01:14.598Z,7.93
2019-01-10T18:03:45.192Z,9.13
2019-01-10T18:06:15.924Z,8.63
2019-01-10T18:08:46.449Z,8.80
2019-01-10T18:11:17.057Z,9.27
2019-01-10T18:13:47.788Z,10.27
2019-01-10T18:16:18.539Z,9.90
2019-01-10T18:18:49.240Z,9.60
2019-01-10T18:21:19.948Z,8.50
2019-01-10T18:23:50.297Z,9.23
2019-01-10T18:26:20.826Z,9.60
2019-01-10T18:28:52.136Z,9.60
2019-01-10T18:31:25.099Z,9.40
2019-01-10T18:33:58.056Z,9.03
2019-01-10T18:36:29.109Z,8.30
2019-01-10T18:39:02.115Z,10.37
2019-01-10T18:41:33.223Z,10.00
2019-01-10T18:44:06.096Z,9.30
2019-01-10T18:46:37.174Z,11.23
2019-01-10T18:49:10.142Z,9.60
2019-01-10T18:51:40.960Z,10.53
2019-01-10T18:54:11.519Z,10.73
2019-01-10T18:56:42.075Z,9.50
2019-01-10T18:59:12.687Z,9.97
2019-01-10T19:01:43.343Z,9.10
2019-01-10T19:04:13.979Z,9.60
2019-01-10T19:06:44.561Z,9.40
2019-01-10T19:09:15.094Z,10.10
2019-01-10T19:11:45.756Z,9.17
2019-01-10T19:14:16.186Z,9.60
2019-01-10T19:16:48.313Z,9.83
2019-01-10T19:19:20.325Z,9.87
2019-01-10T19:21:51.212Z,8.33
2019-01-10T19:24:22.276Z,8.83
2019-01-10T19:26:55.283Z,9.33
2019-01-10T19:29:26.293Z,10.73
2019-01-10T19:31:57.265Z,9.70
2019-01-10T19:34:28.278Z,10.23
2019-01-10T19:36:59.240Z,10.93
2019-01-10T19:39:32.239Z,11.60
2019-01-10T19:42:03.402Z,9.93
2019-01-10T19:44:36.292Z,9.70
2019-01-10T19:47:07.510Z,10.40
2019-01-10T19:49:40.667Z,10.50
2019-01-10T19:52:11.429Z,10.53
2019-01-10T19:54:41.927Z,10.47
2019-01-10T19:57:12.406Z,10.70
2019-01-10T19:59:43.146Z,9.77
2019-01-10T20:02:13.704Z,9.50
2019-01-10T20:04:45.885Z,10.70
2019-01-10T20:07:17.235Z,9.87
2019-01-10T20:09:51.643Z,9.90
2019-01-10T20:12:22.438Z,9.00
2019-01-10T20:14:55.464Z,9.30
2019-01-10T20:17:26.361Z,10.33
2019-01-10T20:19:59.476Z,9.53
2019-01-10T20:22:30.576Z,9.70
2019-01-10T20:25:03.545Z,9.60
2019-01-10T20:27:35.217Z,10.30
2019-01-10T20:30:06.047Z,9.10
2019-01-10T20:32:36.524Z,9.80
2019-01-10T20:35:08.092Z,9.63
2019-01-10T20:37:38.487Z,8.70
2019-01-10T20:40:09.936Z,8.93
2019-01-10T20:42:42.591Z,8.27
2019-01-10T20:45:13.713Z,8.77
2019-01-10T20:47:44.594Z,9.00
2019-01-10T20:50:15.920Z,8.50
2019-01-10T20:52:48.732Z,9.00
2019-01-10T20:55:20.469Z,7.37
2019-01-10T20:57:52.812Z,7.13
2019-01-10T21:00:24.249Z,7.20
2019-01-10T21:02:56.600Z,6.53
2019-01-10T21:05:27.780Z,7.30
2019-01-10T21:08:00.757Z,7.50
2019-01-10T21:10:31.681Z,7.33
2019-01-10T21:13:02.164Z,7.10
2019-01-10T21:15:32.847Z,7.00
2019-01-10T21:18:03.395Z,7.17
2019-01-10T21:20:33.797Z,7.63
2019-01-10T21:23:04.685Z,7.80
2019-01-10T21:25:35.382Z,8.33
2019-01-10T21:28:05.892Z,8.57
2019-01-10T21:30:36.583Z,8.90
2019-01-10T21:33:07.028Z,8.17
2019-01-10T21:35:37.916Z,9.37
2019-01-10T21:38:08.745Z,9.10
2019-01-10T21:40:39.133Z,9.60
2019-01-10T21:43:10.140Z,8.87
2019-01-10T21:45:41.002Z,8.67
2019-01-10T21:48:12.117Z,8.53
2019-01-10T21:50:42.587Z,9.90
2019-01-10T21:53:13.004Z,9.67
2019-01-10T21:55:44.251Z,8.60
2019-01-10T21:58:14.959Z,8.40
2019-01-10T22:00:45.412Z,7.47
2019-01-10T22:03:16.759Z,7.40
2019-01-10T22:05:49.823Z,7.70
2019-01-10T22:08:20.331Z,9.67
2019-01-10T22:10:53.289Z,8.53
2019-01-10T22:13:23.920Z,7.87
2019-01-10T22:15:54.946Z,7.80
2019-01-10T22:18:25.344Z,7.63
2019-01-10T22:20:56.907Z,6.20
2019-01-10T22:23:27.606Z,5.23
2019-01-10T22:26:00.475Z,5.40
2019-01-10T22:28:31.058Z,7.10
2019-01-10T22:31:04.041Z,7.60
2019-01-10T22:33:35.103Z,4.53
2019-01-10T22:36:08.185Z,5.90
2019-01-10T22:38:39.206Z,4.70
2019-01-10T22:41:10.088Z,4.20
2019-01-10T22:43:40.807Z,5.30
2019-01-10T22:46:11.610Z,4.00
2019-01-10T22:48:47.727Z,4.03
2019-01-10T22:51:16.075Z,3.53
2019-01-10T22:53:49.206Z,3.93
2019-01-10T22:56:20.363Z,4.07
2019-01-10T22:58:51.150Z,4.40
2019-01-10T23:01:56.528Z,3.57
2019-01-10T23:04:33.297Z,3.43
2019-01-10T23:07:26.502Z,2.80
2019-01-10T23:10:05.948Z,3.27
2019-01-10T23:12:37.435Z,3.57
2019-01-10T23:15:34.599Z,3.80
2019-01-10T23:18:06.230Z,3.20
2019-01-10T23:20:39.393Z,3.80
2019-01-10T23:23:12.354Z,2.93
2019-01-10T23:25:43.224Z,2.23
2019-01-10T23:28:16.256Z,3.07
2019-01-10T23:30:51.349Z,3.00
2019-01-10T23:33:23.646Z,3.00
2019-01-10T23:36:01.888Z,3.00
2019-01-10T23:38:33.201Z,2.70
2019-01-10T23:41:04.497Z,2.53
2019-01-10T23:43:35.340Z,2.50
2019-01-10T23:46:06.335Z,2.47
2019-01-10T23:48:39.444Z,2.77
2019-01-10T23:51:10.854Z,2.10
2019-01-10T23:53:42.406Z,2.03
2019-01-10T23:56:13.379Z,2.37
2019-01-10T23:58:45.511Z,2.47
